Time;durP1;ratioP1;P1;durP2;ratioP2;P2;SDS_P1;SDS_P2;PMS_P1;PMS_P2;Temp;Humidity;BMP_temperature;BMP_pressure;BME280_temperature;BME280_humidity;BME280_pressure;Samples;Min_cycle;Max_cycle;Signal;HPM_P1;HPM_P2
2022/08/23 00:02:09;;;;;;;0.30;0.30;;;;;;;13.93;52.54;101046.50;5126518;28;20030;-69
2022/08/23 00:04:39;;;;;;;0.30;0.30;;;;;;;13.92;52.45;101045.63;5126634;28;20034;-69
2022/08/23 00:07:07;;;;;;;0.30;0.30;;;;;;;13.95;52.60;101047.31;5126557;28;20030;-69
2022/08/23 00:09:33;;;;;;;0.30;0.30;;;;;;;13.96;52.44;101043.84;5126157;28;20048;-69
2022/08/23 00:12:14;;;;;;;0.30;0.30;;;;;;;13.95;52.63;101044.69;5126416;28;20071;-69
2022/08/23 00:14:43;;;;;;;0.30;0.30;;;;;;;13.90;52.25;101043.91;5126460;28;20023;-69
2022/08/23 00:17:10;;;;;;;0.30;0.30;;;;;;;13.81;52.55;101037.91;5108137;28;20439;-69
2022/08/23 00:19:36;;;;;;;0.30;0.30;;;;;;;13.78;52.55;101045.78;5126536;28;20051;-69
2022/08/23 00:22:01;;;;;;;0.65;0.65;;;;;;;13.73;52.46;101042.34;5126340;28;20023;-69
2022/08/23 00:24:27;;;;;;;0.30;0.30;;;;;;;13.66;52.55;101041.56;5125945;28;20071;-68
2022/08/23 00:26:58;;;;;;;0.30;0.30;;;;;;;13.69;53.09;101045.91;5125826;28;20475;-68
2022/08/23 00:29:29;;;;;;;0.30;0.30;;;;;;;13.65;53.65;101045.06;5126771;28;20042;-70
2022/08/23 00:31:55;;;;;;;0.30;0.30;;;;;;;13.59;53.92;101037.31;5130275;28;20044;-70
2022/08/23 00:34:21;;;;;;;0.30;0.30;;;;;;;13.54;53.16;101042.56;5111425;28;20100;-70
2022/08/23 00:36:48;;;;;;;0.30;0.30;;;;;;;13.51;53.05;101047.81;5130443;28;20024;-69
2022/08/23 00:39:15;;;;;;;0.30;0.30;;;;;;;13.51;52.93;101048.66;5130106;28;20051;-70
2022/08/23 00:41:41;;;;;;;0.30;0.30;;;;;;;13.50;53.50;101041.72;5129858;28;20057;-70
2022/08/23 00:49:56;;;;;;;0.30;0.30;;;;;;;13.42;54.11;101033.09;5130005;28;20034;-70
2022/08/23 00:52:31;;;;;;;0.30;0.30;;;;;;;13.36;56.42;101044.44;5130063;28;20035;-69
2022/08/23 00:54:57;;;;;;;0.30;0.30;;;;;;;13.31;55.33;101043.63;5129852;28;20367;-69
2022/08/23 00:57:23;;;;;;;0.30;0.30;;;;;;;13.27;55.46;101041.94;5129880;28;20024;-70
2022/08/23 00:59:49;;;;;;;0.43;0.43;;;;;;;13.24;55.61;101039.34;5129890;28;20050;-68
2022/08/23 01:02:15;;;;;;;0.30;0.30;;;;;;;13.17;56.47;101040.28;5129790;28;20024;-68
2022/08/23 01:04:47;;;;;;;0.35;0.35;;;;;;;13.08;58.54;101038.63;5130046;28;20034;-68
2022/08/23 01:07:45;;;;;;;0.30;0.30;;;;;;;13.06;56.96;101046.47;5129580;28;20031;-68
2022/08/23 01:10:28;;;;;;;0.30;0.30;;;;;;;13.01;56.21;101045.63;5114010;28;20040;-69
2022/08/23 01:13:15;;;;;;;0.30;0.30;;;;;;;12.95;58.48;101053.50;5111484;28;20058;-68
2022/08/23 01:15:55;;;;;;;0.30;0.30;;;;;;;12.84;58.32;101046.63;5129672;28;20024;-69
2022/08/23 01:18:25;;;;;;;0.30;0.30;;;;;;;12.81;58.21;101048.41;5129523;28;20027;-68
2022/08/23 01:20:55;;;;;;;0.30;0.30;;;;;;;12.80;59.01;101044.91;5111503;28;20038;-68
2022/08/23 01:23:32;;;;;;;0.30;0.30;;;;;;;12.79;61.99;101040.59;5129638;28;20028;-69
2022/08/23 01:25:58;;;;;;;0.30;0.30;;;;;;;12.78;59.68;101049.28;5129489;28;20411;-68
2022/08/23 01:28:24;;;;;;;0.30;0.30;;;;;;;12.79;60.25;101050.16;5129302;28;20486;-68
2022/08/23 01:30:50;;;;;;;0.30;0.30;;;;;;;12.82;60.56;101048.38;5110983;28;20031;-68
2022/08/23 01:33:16;;;;;;;0.30;0.30;;;;;;;12.83;60.41;101039.69;5129523;28;20015;-68
2022/08/23 01:35:46;;;;;;;0.30;0.30;;;;;;;12.86;62.77;101046.63;5129605;28;20030;-68
2022/08/23 01:38:12;;;;;;;0.30;0.30;;;;;;;12.88;62.68;101050.06;5129421;28;20023;-68
2022/08/23 01:40:38;;;;;;;0.30;0.30;;;;;;;12.84;61.90;101053.59;5128680;28;20019;-68
2022/08/23 01:43:05;;;;;;;0.30;0.30;;;;;;;12.81;61.85;101059.66;5129266;28;20502;-68
2022/08/23 01:45:32;;;;;;;0.30;0.30;;;;;;;12.72;62.87;101054.53;5129254;28;20023;-68
2022/08/23 01:47:58;;;;;;;0.30;0.30;;;;;;;12.66;64.78;101051.97;5129282;28;20079;-68
2022/08/23 01:50:25;;;;;;;0.30;0.30;;;;;;;12.64;64.99;101055.47;5129417;28;20030;-68
2022/08/23 01:52:51;;;;;;;0.30;0.30;;;;;;;12.66;64.69;101054.56;5129562;28;20158;-68
2022/08/23 01:55:17;;;;;;;0.30;0.30;;;;;;;12.64;63.87;101060.66;5129630;28;20027;-67
2022/08/23 01:57:45;;;;;;;0.30;0.30;;;;;;;12.52;63.42;101045.97;5130704;28;20027;-69
2022/08/23 02:00:12;;;;;;;0.30;0.30;;;;;;;12.57;63.65;101064.16;5129347;28;20023;-69
2022/08/23 02:02:37;;;;;;;0.30;0.30;;;;;;;12.57;63.09;101048.53;5129210;28;20463;-69
2022/08/23 02:05:04;;;;;;;0.30;0.30;;;;;;;12.63;62.59;101060.69;5128946;28;20083;-69
2022/08/23 02:07:30;;;;;;;0.30;0.30;;;;;;;12.64;61.89;101058.06;5129028;28;20024;-68
2022/08/23 02:09:55;;;;;;;0.30;0.30;;;;;;;12.64;61.60;101050.25;5128644;28;20024;-69
2022/08/23 02:12:21;;;;;;;0.30;0.30;;;;;;;12.63;61.50;101043.31;5128828;28;20071;-69
2022/08/23 02:14:47;;;;;;;0.30;0.30;;;;;;;12.63;61.36;101043.31;5128796;28;20022;-67
2022/08/23 02:17:14;;;;;;;0.30;0.30;;;;;;;12.63;60.99;101040.72;5110428;28;20178;-69
2022/08/23 02:19:42;;;;;;;1.73;1.67;;;;;;;12.64;60.97;101044.16;5128646;28;20024;-70
2022/08/23 02:22:07;;;;;;;0.30;0.30;;;;;;;12.64;60.71;101055.47;5128702;28;20049;-70
2022/08/23 02:24:34;;;;;;;0.30;0.30;;;;;;;12.63;60.73;101060.69;5128312;28;20043;-70
2022/08/23 02:27:03;;;;;;;0.30;0.30;;;;;;;12.60;60.39;101052.88;5110029;28;20038;-69
2022/08/23 02:29:29;;;;;;;0.30;0.30;;;;;;;12.61;60.27;101055.47;5128492;28;20015;-69
2022/08/23 02:31:55;;;;;;;0.30;0.30;;;;;;;12.61;60.23;101058.09;5128583;28;20024;-70
2022/08/23 02:34:21;;;;;;;0.30;0.30;;;;;;;12.61;60.60;101068.50;5128448;28;20015;-69
2022/08/23 02:36:47;;;;;;;0.30;0.30;;;;;;;12.59;60.32;101064.16;5128332;28;20116;-67
2022/08/23 02:39:14;;;;;;;0.30;0.30;;;;;;;12.56;60.93;101059.84;5128140;28;20023;-70
2022/08/23 02:41:40;;;;;;;0.30;0.30;;;;;;;12.54;60.58;101068.56;5128077;28;20032;-70
2022/08/23 02:44:06;;;;;;;0.30;0.30;;;;;;;12.50;61.06;101063.38;5127997;28;20046;-70
2022/08/23 02:46:31;;;;;;;0.30;0.30;;;;;;;12.45;60.08;101062.53;5127957;28;20332;-70
2022/08/23 02:48:57;;;;;;;0.30;0.30;;;;;;;12.46;60.65;101066.00;5128133;28;20020;-69
2022/08/23 02:51:22;;;;;;;0.30;0.30;;;;;;;12.44;60.35;101065.13;5127981;28;20035;-70
2022/08/23 02:53:48;;;;;;;0.30;0.30;;;;;;;12.46;60.20;101059.03;5127245;28;20028;-69
2022/08/23 02:56:14;;;;;;;0.30;0.30;;;;;;;12.44;59.91;101059.91;5127622;28;20026;-68
2022/08/23 02:58:40;;;;;;;0.30;0.30;;;;;;;12.44;60.10;101057.31;5128084;28;20055;-69
2022/08/23 03:01:14;;;;;;;0.30;0.30;;;;;;;12.44;60.17;101063.41;5127773;28;20019;-69
2022/08/23 03:03:39;;;;;;;0.30;0.30;;;;;;;12.43;60.18;101060.81;5127710;28;20034;-69
2022/08/23 03:06:05;;;;;;;0.30;0.30;;;;;;;12.41;60.22;101060.81;5127898;28;20019;-69
2022/08/23 03:08:30;;;;;;;0.30;0.30;;;;;;;12.43;60.12;101066.00;5127754;28;20012;-69
2022/08/23 03:10:56;;;;;;;0.30;0.30;;;;;;;12.42;60.22;101066.88;5127618;28;20028;-68
2022/08/23 03:13:21;;;;;;;0.30;0.30;;;;;;;12.41;60.08;101062.53;5127799;28;20505;-68
2022/08/23 03:15:46;;;;;;;0.30;0.30;;;;;;;12.42;59.93;101054.72;5127420;28;20023;-67
2022/08/23 03:18:12;;;;;;;0.30;0.30;;;;;;;12.44;59.97;101058.19;5127244;28;20118;-68
2022/08/23 03:20:40;;;;;;;0.30;0.30;;;;;;;12.47;59.87;101060.78;5127448;28;20049;-68
2022/08/23 03:23:06;;;;;;;0.30;0.30;;;;;;;12.48;59.82;101064.22;5127344;28;20027;-68
2022/08/23 03:25:31;;;;;;;0.30;0.30;;;;;;;12.41;60.93;101063.41;5126978;28;20103;-68
2022/08/23 03:27:57;;;;;;;0.30;0.30;;;;;;;12.38;60.57;101063.44;5127161;28;20032;-67
2022/08/23 03:30:22;;;;;;;0.30;0.30;;;;;;;12.39;60.11;101071.25;5108764;28;20023;-68
2022/08/23 03:32:48;;;;;;;0.30;0.30;;;;;;;12.39;60.27;101057.34;5127418;28;20027;-68
2022/08/23 03:35:13;;;;;;;0.30;0.30;;;;;;;12.40;60.11;101056.47;5108873;28;20023;-69
2022/08/23 03:37:40;;;;;;;0.30;0.30;;;;;;;12.42;60.53;101069.47;5127140;28;20051;-69
2022/08/23 03:40:06;;;;;;;0.30;0.30;;;;;;;12.42;60.46;101069.47;5126761;28;20077;-68
2022/08/23 03:42:32;;;;;;;0.30;0.30;;;;;;;12.42;59.97;101064.25;5127043;28;20027;-68
2022/08/23 03:44:57;;;;;;;0.30;0.30;;;;;;;12.46;59.81;101071.22;5126914;28;20026;-69
2022/08/23 03:47:23;;;;;;;0.30;0.30;;;;;;;12.46;59.69;101071.22;5126896;28;20023;-69
2022/08/23 03:49:48;;;;;;;0.47;0.47;;;;;;;12.48;59.69;101066.84;5126841;28;20168;-69
2022/08/23 03:52:14;;;;;;;0.30;0.30;;;;;;;12.52;59.62;101065.97;5126830;28;20499;-70
2022/08/23 03:54:39;;;;;;;0.30;0.30;;;;;;;12.58;59.70;101073.72;5126499;28;20031;-68
2022/08/23 03:57:08;;;;;;;0.30;0.30;;;;;;;12.58;59.89;101070.25;5127006;28;20030;-70
2022/08/23 03:59:36;;;;;;;0.45;0.45;;;;;;;12.62;59.53;101075.44;5126643;28;20016;-69
2022/08/23 04:02:01;;;;;;;0.30;0.30;;;;;;;12.69;59.71;101078.88;5126767;28;20050;-69
2022/08/23 04:04:27;;;;;;;0.30;0.30;;;;;;;12.72;59.73;101072.75;5126413;28;20042;-70
2022/08/23 04:06:52;;;;;;;0.30;0.30;;;;;;;12.74;59.89;101069.28;5126829;28;20020;-68
2022/08/23 04:09:17;;;;;;;0.30;0.30;;;;;;;12.80;59.67;101075.31;5126442;28;20019;-69
2022/08/23 04:11:43;;;;;;;0.30;0.30;;;;;;;12.79;59.70;101073.59;5126325;28;20020;-69
2022/08/23 04:14:09;;;;;;;0.30;0.30;;;;;;;12.84;59.52;101077.03;5126290;28;20024;-68
2022/08/23 04:16:36;;;;;;;0.30;0.30;;;;;;;12.85;59.50;101084.84;5126264;28;20028;-68
2022/08/23 04:19:07;;;;;;;0.30;0.30;;;;;;;12.88;59.57;101082.22;5126171;28;20096;-69
2022/08/23 04:21:33;;;;;;;0.30;0.30;;;;;;;12.90;59.50;101087.41;5126352;28;20466;-68
2022/08/23 04:23:58;;;;;;;0.30;0.30;;;;;;;12.91;59.55;101089.13;5126252;28;20035;-68
2022/08/23 04:26:24;;;;;;;0.30;0.30;;;;;;;12.92;59.59;101088.28;5126086;28;20028;-68
2022/08/23 04:28:49;;;;;;;0.30;0.30;;;;;;;12.92;59.64;101090.00;5086282;28;20045;-69
2022/08/23 04:31:16;;;;;;;0.30;0.30;;;;;;;12.96;59.71;101099.53;5085727;28;20035;-69
2022/08/23 04:33:41;;;;;;;0.40;0.40;;;;;;;12.96;59.47;101089.09;5085344;28;20029;-69
2022/08/23 04:36:07;;;;;;;0.30;0.30;;;;;;;13.00;59.26;101098.66;5085769;28;20056;-69
2022/08/23 04:38:32;;;;;;;0.30;0.30;;;;;;;13.09;59.37;101102.91;5085302;28;20025;-69
2022/08/23 04:43:45;;;;;;;0.30;0.30;;;;;;;13.28;59.49;101108.84;5085562;28;20039;-69
2022/08/23 04:46:14;;;;;;;0.30;0.30;;;;;;;13.45;59.79;101113.91;5085573;28;20031;-69
2022/08/23 04:48:40;;;;;;;0.30;0.30;;;;;;;13.58;60.45;101117.31;5085726;28;20032;-68
2022/08/23 04:51:06;;;;;;;0.30;0.30;;;;;;;13.63;60.64;101118.13;5085486;28;20108;-69
2022/08/23 04:53:34;;;;;;;0.30;0.30;;;;;;;13.74;60.72;101117.13;5085295;28;20060;-69
2022/08/23 04:56:01;;;;;;;0.30;0.30;;;;;;;13.89;60.51;101121.34;5083744;28;20035;-68
2022/08/23 04:58:27;;;;;;;0.30;0.30;;;;;;;13.97;60.54;101109.09;5085292;28;20139;-69
2022/08/23 05:00:53;;;;;;;0.30;0.30;;;;;;;14.02;60.33;101105.53;5085283;28;20047;-71
2022/08/23 05:03:19;;;;;;;0.30;0.30;;;;;;;14.18;60.32;101116.69;5085247;28;20020;-71
2022/08/23 05:05:45;;;;;;;0.30;0.30;;;;;;;14.27;59.94;101116.56;5085181;28;20452;-70
2022/08/23 05:08:10;;;;;;;0.20;0.20;;;;;;;14.33;59.80;101118.25;5083845;28;20017;-70
2022/08/23 05:10:35;;;;;;;0.22;0.22;;;;;;;14.48;60.06;101127.63;5085097;28;20166;-71
2022/08/23 05:13:01;;;;;;;0.40;0.40;;;;;;;14.57;59.92;101130.09;5085427;28;20079;-70
2022/08/23 05:15:26;;;;;;;0.30;0.30;;;;;;;14.75;60.36;101117.66;5086159;28;20028;-71
2022/08/23 05:17:52;;;;;;;0.30;0.30;;;;;;;15.10;60.67;101118.03;5089127;28;20034;-70
2022/08/23 05:20:17;;;;;;;0.30;0.30;;;;;;;15.42;60.67;101119.25;5089001;28;20028;-69
2022/08/23 05:22:43;;;;;;;0.30;0.30;;;;;;;15.58;59.86;101118.97;5089060;28;20024;-67
2022/08/23 05:25:09;;;;;;;0.30;0.30;;;;;;;15.55;59.88;101112.06;5088553;28;20071;-68
2022/08/23 05:27:35;;;;;;;0.30;0.30;;;;;;;15.44;60.25;101108.78;5087351;28;20044;-68
2022/08/23 05:30:00;;;;;;;0.20;0.20;;;;;;;15.62;59.90;101118.06;5088739;28;20039;-67
2022/08/23 05:32:26;;;;;;;0.20;0.20;;;;;;;15.78;60.16;101110.78;5088904;28;20036;-68
2022/08/23 05:34:51;;;;;;;0.22;0.22;;;;;;;16.14;60.42;101127.56;5088748;28;20464;-68
2022/08/23 05:37:17;;;;;;;0.40;0.40;;;;;;;16.56;60.48;101122.34;5088712;28;20035;-68
2022/08/23 05:39:42;;;;;;;0.20;0.20;;;;;;;17.11;60.85;101120.25;5088596;28;20107;-68
2022/08/23 05:42:12;;;;;;;0.20;0.20;;;;;;;17.99;60.55;101126.75;5088707;28;20033;-69
2022/08/23 05:44:37;;;;;;;0.20;0.20;;;;;;;18.69;60.05;101125.56;5088397;28;20048;-67
2022/08/23 05:47:08;;;;;;;0.20;0.20;;;;;;;18.93;58.91;101132.75;5088416;28;20020;-69
2022/08/23 05:49:35;;;;;;;0.20;0.20;;;;;;;18.95;58.60;101133.53;5088412;28;20027;-69
2022/08/23 05:52:05;;;;;;;0.20;0.20;;;;;;;18.95;58.04;101138.81;5088387;28;20084;-70
2022/08/23 05:54:31;;;;;;;0.20;0.20;;;;;;;19.17;58.61;101139.00;5086947;28;20036;-69
2022/08/23 05:56:57;;;;;;;0.20;0.20;;;;;;;19.22;58.08;101133.59;5088138;28;20078;-69
2022/08/23 05:59:22;;;;;;;0.20;0.20;;;;;;;19.17;57.57;101127.63;5088194;28;20099;-69
2022/08/23 06:01:47;;;;;;;0.20;0.20;;;;;;;19.08;57.72;101121.72;5088258;28;20030;-69
2022/08/23 06:04:13;;;;;;;0.20;0.20;;;;;;;19.09;57.50;101127.84;5088337;28;20039;-69
2022/08/23 06:06:41;;;;;;;0.20;0.20;;;;;;;19.26;56.93;101127.31;5088335;28;20031;-69
2022/08/23 06:09:10;;;;;;;0.20;0.20;;;;;;;19.46;56.82;101131.03;5088148;28;20016;-69
2022/08/23 06:11:35;;;;;;;0.20;0.20;;;;;;;19.59;56.75;101135.88;5088066;28;20025;-70
2022/08/23 06:14:04;;;;;;;0.20;0.20;;;;;;;19.74;56.82;101132.72;5088115;28;20028;-70
2022/08/23 06:16:38;;;;;;;0.20;0.20;;;;;;;20.02;56.52;101128.19;5088053;28;20110;-70
2022/08/23 06:19:05;;;;;;;0.20;0.20;;;;;;;20.35;56.75;101137.59;5088236;28;20028;-69
2022/08/23 06:21:31;;;;;;;0.25;0.25;;;;;;;20.48;55.98;101138.81;5086376;28;20027;-70
2022/08/23 06:23:57;;;;;;;0.20;0.20;;;;;;;20.50;55.59;101137.00;5087903;28;20051;-70
2022/08/23 06:26:26;;;;;;;0.20;0.20;;;;;;;20.59;54.82;101141.03;5087450;28;20028;-68
2022/08/23 06:28:55;;;;;;;0.20;0.20;;;;;;;20.64;54.88;101140.88;5085520;28;20041;-70
2022/08/23 06:34:09;;;;;;;0.20;0.20;;;;;;;21.17;55.01;101133.50;5088009;28;20028;-68
2022/08/23 06:36:36;;;;;;;0.15;0.15;;;;;;;21.69;54.64;101134.88;5087649;28;20020;-68
2022/08/23 06:39:03;;;;;;;0.20;0.20;;;;;;;21.91;53.76;101134.81;5087508;28;20456;-70
2022/08/23 06:41:28;;;;;;;0.20;0.20;;;;;;;22.11;53.24;101134.81;5087446;28;20024;-70
2022/08/23 06:43:54;;;;;;;0.20;0.20;;;;;;;22.63;53.25;101142.13;5087666;28;20067;-69
2022/08/23 06:46:21;;;;;;;0.20;0.20;;;;;;;23.01;52.33;101137.69;5087364;28;20024;-69
2022/08/23 06:48:47;;;;;;;0.20;0.20;;;;;;;22.98;51.77;101141.34;5087462;28;20020;-69
2022/08/23 06:51:22;;;;;;;0.20;0.20;;;;;;;22.73;51.51;101142.53;5087482;28;20170;-69
2022/08/23 06:53:48;;;;;;;1.05;0.88;;;;;;;22.48;50.92;101138.38;5087395;28;20507;-69
2022/08/23 06:56:13;;;;;;;0.20;0.20;;;;;;;22.27;50.93;101138.47;5087184;28;20034;-68
2022/08/23 06:58:39;;;;;;;0.10;0.10;;;;;;;22.20;50.71;101134.41;5087128;28;20021;-69
2022/08/23 07:01:35;;;;;;;0.20;0.20;;;;;;;21.98;50.45;101143.28;5087170;28;20024;-69
2022/08/23 07:04:03;;;;;;;0.20;0.20;;;;;;;21.54;49.91;101144.28;5087206;28;20103;-69
2022/08/23 07:06:29;;;;;;;0.20;0.20;;;;;;;21.13;49.87;101147.78;5087312;28;20036;-69
2022/08/23 07:08:55;;;;;;;0.20;0.20;;;;;;;20.72;50.19;101153.78;5087184;28;20320;-70
2022/08/23 07:11:22;;;;;;;0.20;0.20;;;;;;;20.41;50.48;101158.44;5086922;28;20111;-69
2022/08/23 07:13:48;;;;;;;0.63;0.63;;;;;;;20.15;50.56;101150.59;5087007;28;20039;-69
2022/08/23 07:16:16;;;;;;;0.20;0.20;;;;;;;20.00;50.85;101146.72;5086864;28;20020;-69
2022/08/23 07:18:43;;;;;;;0.20;0.20;;;;;;;19.85;51.35;101153.41;5086663;28;20028;-69
2022/08/23 07:21:09;;;;;;;0.20;0.20;;;;;;;19.62;51.63;101148.94;5086841;28;20464;-70
2022/08/23 07:23:35;;;;;;;0.20;0.20;;;;;;;19.59;51.69;101155.16;5086764;28;20028;-69
2022/08/23 07:26:07;;;;;;;0.20;0.20;;;;;;;19.41;51.57;101154.88;5086470;28;20032;-69
2022/08/23 07:28:33;;;;;;;0.20;0.20;;;;;;;19.20;51.81;101161.75;5117659;28;20063;-69
2022/08/23 07:31:07;;;;;;;0.20;0.20;;;;;;;19.05;52.51;101157.78;5127375;28;20039;-69
2022/08/23 07:33:33;;;;;;;0.20;0.20;;;;;;;18.97;52.37;101152.78;5108753;28;20058;-70
2022/08/23 07:35:58;;;;;;;0.20;0.20;;;;;;;18.96;52.65;101151.06;5127213;28;20027;-69
2022/08/23 07:38:24;;;;;;;0.20;0.20;;;;;;;18.96;52.79;101156.34;5108266;28;20467;-69
2022/08/23 07:40:49;;;;;;;0.20;0.20;;;;;;;19.02;53.20;101165.78;5126921;28;20027;-68
2022/08/23 07:43:14;;;;;;;0.20;0.20;;;;;;;19.17;52.84;101153.94;5127059;28;20046;-68
2022/08/23 07:45:42;;;;;;;0.40;0.40;;;;;;;19.44;53.13;101148.69;5127066;28;20027;-69
2022/08/23 07:48:07;;;;;;;0.20;0.20;;;;;;;19.68;52.76;101162.75;5127067;28;20035;-70
2022/08/23 07:50:32;;;;;;;0.22;0.22;;;;;;;19.78;52.84;101160.66;5127016;28;20020;-68
2022/08/23 07:52:58;;;;;;;0.20;0.20;;;;;;;20.18;53.21;101160.16;5126978;28;20020;-68
2022/08/23 07:55:23;;;;;;;0.20;0.20;;;;;;;20.65;52.32;101158.44;5126729;28;20028;-68
2022/08/23 07:57:49;;;;;;;0.20;0.20;;;;;;;20.77;51.37;101163.22;5126890;28;20031;-68
2022/08/23 08:00:14;;;;;;;0.20;0.20;;;;;;;20.65;51.34;101174.25;5126802;28;20019;-68
2022/08/23 08:02:40;;;;;;;0.20;0.20;;;;;;;20.56;51.57;101171.03;5126980;28;20035;-68
2022/08/23 08:05:06;;;;;;;0.20;0.20;;;;;;;20.56;50.82;101168.41;5126765;28;20567;-68
2022/08/23 08:07:32;;;;;;;0.20;0.20;;;;;;;20.51;51.41;101169.50;5126783;28;20037;-68
2022/08/23 08:09:58;;;;;;;0.20;0.20;;;;;;;20.35;51.00;101162.16;5126494;28;20027;-68
2022/08/23 08:12:23;;;;;;;0.20;0.20;;;;;;;20.34;51.24;101168.38;5126955;28;20024;-70
2022/08/23 08:14:49;;;;;;;0.20;0.20;;;;;;;20.45;51.35;101173.22;5126677;28;20028;-69
2022/08/23 08:17:16;;;;;;;0.20;0.20;;;;;;;20.54;50.97;101166.75;5108647;28;20026;-69
2022/08/23 08:19:42;;;;;;;0.20;0.20;;;;;;;20.58;51.17;101162.19;5126673;28;20023;-69
2022/08/23 08:22:07;;;;;;;0.20;0.20;;;;;;;20.61;51.38;101172.63;5108374;28;20051;-68
2022/08/23 08:24:33;;;;;;;0.20;0.20;;;;;;;20.63;50.83;101165.53;5126528;28;20077;-69
2022/08/23 08:26:58;;;;;;;0.20;0.20;;;;;;;20.74;50.58;101165.97;5126278;28;20041;-70
2022/08/23 08:29:24;;;;;;;0.20;0.20;;;;;;;20.93;50.06;101162.63;5126497;28;20020;-68
2022/08/23 08:31:50;;;;;;;0.20;0.20;;;;;;;21.21;49.33;101172.09;5126470;28;20028;-69
2022/08/23 08:34:17;;;;;;;0.20;0.20;;;;;;;21.29;48.69;101172.59;5126592;28;20023;-69
2022/08/23 08:36:49;;;;;;;0.20;0.20;;;;;;;21.35;48.93;101174.16;5126421;28;20079;-69
2022/08/23 08:39:20;;;;;;;0.20;0.20;;;;;;;21.74;48.41;101177.78;5126243;28;20055;-69
2022/08/23 08:41:57;;;;;;;0.20;0.20;;;;;;;21.95;47.77;101164.56;5126257;28;20148;-69
2022/08/23 08:44:46;;;;;;;0.20;0.20;;;;;;;22.19;48.27;101164.41;5126432;28;20028;-69
2022/08/23 08:47:17;;;;;;;0.20;0.20;;;;;;;22.39;47.71;101171.44;5126367;28;20026;-69
2022/08/23 08:49:48;;;;;;;;;;;;;;;22.21;46.80;101175.78;5126810;28;20019;-68
2022/08/23 08:52:23;;;;;;;0.20;0.20;;;;;;;21.84;47.67;101177.44;5130185;28;19914;-69
2022/08/23 08:54:54;;;;;;;0.20;0.20;;;;;;;21.71;48.07;101172.63;5130505;28;20057;-68
2022/08/23 08:57:22;;;;;;;0.20;0.20;;;;;;;21.69;48.29;101177.13;5130266;28;20102;-69
2022/08/23 08:59:58;;;;;;;0.25;0.25;;;;;;;21.65;48.15;101175.53;5112044;28;20023;-69
2022/08/23 09:02:30;;;;;;;0.20;0.20;;;;;;;21.63;47.85;101178.25;5130257;28;20023;-69
2022/08/23 09:04:55;;;;;;;;;;;;;;;21.75;48.02;101176.00;5130623;28;20026;-69
2022/08/23 09:07:29;;;;;;;0.20;0.20;;;;;;;21.82;47.71;101176.63;5130428;28;19908;-68
2022/08/23 09:10:30;;;;;;;0.20;0.20;;;;;;;21.78;47.95;101181.19;5130254;28;20024;-69
2022/08/23 09:13:14;;;;;;;0.20;0.20;;;;;;;21.86;47.68;101183.50;5046953;28;20040;-70
2022/08/23 09:15:39;;;;;;;0.20;0.20;;;;;;;21.96;47.82;101183.94;5047114;28;20060;-70
2022/08/23 09:18:10;;;;;;;0.20;0.20;;;;;;;22.12;47.30;101184.13;5046937;28;20465;-69
2022/08/23 09:20:37;;;;;;;0.20;0.20;;;;;;;22.12;47.28;101176.19;5046875;28;20042;-70
2022/08/23 09:23:16;;;;;;;0.20;0.20;;;;;;;21.97;47.70;101180.38;5046953;28;20038;-69
2022/08/23 09:25:51;;;;;;;0.20;0.20;;;;;;;21.92;48.12;101183.22;5046687;28;20036;-69
2022/08/23 09:28:16;;;;;;;0.20;0.20;;;;;;;22.01;48.05;101185.44;5046732;28;20075;-69
2022/08/23 09:31:00;;;;;;;0.20;0.20;;;;;;;22.21;47.95;101180.19;5046745;28;20071;-69
2022/08/23 09:33:40;;;;;;;0.50;0.50;;;;;;;22.24;48.23;101183.56;5046646;28;20057;-68
2022/08/23 09:36:21;;;;;;;0.20;0.20;;;;;;;22.34;47.96;101185.78;5046520;28;20040;-69
2022/08/23 09:38:59;;;;;;;0.20;0.20;;;;;;;22.37;48.11;101178.56;5046506;28;20237;-69
2022/08/23 09:41:35;;;;;;;0.20;0.20;;;;;;;22.26;47.40;101187.00;5046370;28;20445;-70
2022/08/23 09:44:02;;;;;;;0.20;0.20;;;;;;;22.16;47.84;101180.41;5046643;28;20037;-69
2022/08/23 09:46:31;;;;;;;0.20;0.20;;;;;;;22.19;47.37;101180.25;5073743;28;20046;-69
2022/08/23 09:49:00;;;;;;;0.20;0.20;;;;;;;22.45;47.04;101186.16;5110879;28;20498;-69
2022/08/23 09:51:40;;;;;;;0.20;0.20;;;;;;;22.67;47.05;101184.34;5129333;28;20035;-69
2022/08/23 09:54:18;;;;;;;0.10;0.10;;;;;;;22.72;45.79;101188.47;5129258;28;20034;-70
2022/08/23 09:56:51;;;;;;;0.20;0.20;;;;;;;22.52;45.03;101197.31;5129040;28;20028;-69
2022/08/23 09:59:50;;;;;;;0.20;0.20;;;;;;;22.15;44.69;101184.84;5129028;28;20042;-68
2022/08/23 10:02:31;;;;;;;0.20;0.20;;;;;;;21.89;45.49;101189.50;5105447;28;20031;-69
2022/08/23 10:05:05;;;;;;;0.20;0.20;;;;;;;21.75;45.96;101195.38;5129054;28;20354;-69
2022/08/23 10:07:40;;;;;;;0.20;0.20;;;;;;;21.77;46.21;101188.25;5128939;28;20368;-69
2022/08/23 10:10:22;;;;;;;0.20;0.20;;;;;;;21.89;45.44;101180.72;5128616;28;20023;-67
2022/08/23 10:12:48;;;;;;;0.20;0.20;;;;;;;22.15;45.30;101174.28;5129159;28;20061;-69
2022/08/23 10:15:14;;;;;;;0.20;0.20;;;;;;;22.51;44.76;101180.56;5128939;28;20387;-69
2022/08/23 10:17:53;;;;;;;0.25;0.25;;;;;;;22.91;44.77;101176.97;5128888;28;20023;-69
2022/08/23 10:20:39;;;;;;;0.20;0.20;;;;;;;23.25;44.24;101172.69;5128891;28;20028;-69
2022/08/23 10:23:17;;;;;;;0.20;0.20;;;;;;;23.83;43.96;101184.84;5128710;28;20030;-69
2022/08/23 10:25:51;;;;;;;0.17;0.17;;;;;;;24.44;42.87;101171.06;5128481;28;20467;-68
2022/08/23 10:31:37;;;;;;;0.20;0.20;;;;;;;25.98;40.78;101167.53;5128564;28;20030;-69
2022/08/23 10:34:13;;;;;;;0.15;0.15;;;;;;;26.29;40.55;101174.53;5128650;28;20125;-69
2022/08/23 10:37:03;;;;;;;0.10;0.10;;;;;;;26.22;39.31;101158.09;5128481;28;20019;-69
2022/08/23 10:39:30;;;;;;;0.10;0.10;;;;;;;26.61;39.80;101163.66;5128343;28;20115;-69
2022/08/23 10:42:16;;;;;;;0.20;0.20;;;;;;;27.10;38.97;101166.75;5128183;28;20024;-70
2022/08/23 10:44:54;;;;;;;0.32;0.32;;;;;;;27.46;38.28;101159.03;5128198;28;20023;-69
2022/08/23 10:47:36;;;;;;;0.10;0.10;;;;;;;27.85;37.87;101161.72;5127983;28;20030;-69
2022/08/23 10:50:11;;;;;;;0.10;0.10;;;;;;;27.76;37.74;101159.69;5128101;28;20096;-69
2022/08/23 10:52:45;;;;;;;0.15;0.15;;;;;;;27.22;38.63;101146.41;5109827;28;20054;-70
2022/08/23 10:55:34;;;;;;;0.10;0.10;;;;;;;26.92;38.20;101164.31;5127614;28;20516;-68
2022/08/23 10:58:05;;;;;;;0.10;0.10;;;;;;;26.27;38.46;101161.31;5127996;28;20087;-69
2022/08/23 11:00:31;;;;;;;0.10;0.10;;;;;;;25.95;39.24;101161.53;5127945;28;20034;-69
2022/08/23 11:03:20;;;;;;;0.10;0.10;;;;;;;26.70;39.07;101163.06;5127888;28;20483;-70
2022/08/23 11:06:22;;;;;;;0.10;0.10;;;;;;;27.27;36.94;101165.59;5127726;28;20027;-68
2022/08/23 11:08:57;;;;;;;0.10;0.10;;;;;;;27.24;36.81;101147.16;5127867;28;20065;-68
2022/08/23 11:11:46;;;;;;;0.10;0.10;;;;;;;27.41;35.80;101161.16;5127437;28;20068;-69
2022/08/23 11:14:27;;;;;;;0.10;0.10;;;;;;;28.19;34.83;101158.47;5127058;28;20028;-69
2022/08/23 11:16:59;;;;;;;0.20;0.20;;;;;;;28.53;34.57;101160.53;5127475;28;20049;-70
2022/08/23 11:19:46;;;;;;;1.00;1.00;;;;;;;28.76;33.97;101152.63;5127675;28;20092;-69
2022/08/23 11:22:16;;;;;;;0.10;0.10;;;;;;;28.98;34.09;101159.09;5127463;28;20047;-68
2022/08/23 11:25:24;;;;;;;0.13;0.13;;;;;;;29.14;34.31;101151.59;5127219;28;20041;-69
2022/08/23 11:27:49;;;;;;;0.10;0.10;;;;;;;29.46;34.38;101162.63;5126992;28;20047;-70
2022/08/23 11:30:30;;;;;;;0.10;0.10;;;;;;;28.52;32.83;101156.16;5127090;28;20051;-69
2022/08/23 11:33:01;;;;;;;0.10;0.10;;;;;;;27.01;34.41;101156.69;5127368;28;20083;-69
2022/08/23 11:35:37;;;;;;;0.43;0.43;;;;;;;25.86;36.19;101160.31;5127215;28;20043;-68
2022/08/23 11:38:04;;;;;;;0.38;0.38;;;;;;;25.06;37.56;101161.44;5127128;28;20031;-69
2022/08/23 11:40:48;;;;;;;0.10;0.10;;;;;;;24.38;38.15;101169.59;5126659;28;20024;-70
2022/08/23 11:43:25;;;;;;;0.10;0.10;;;;;;;23.79;38.59;101160.28;5126947;28;20079;-69
2022/08/23 11:45:51;;;;;;;0.20;0.20;;;;;;;23.39;38.82;101171.16;5126906;28;20058;-69
2022/08/23 11:48:23;;;;;;;0.17;0.17;;;;;;;23.00;39.25;101168.59;5126770;28;20027;-68
2022/08/23 11:51:07;;;;;;;0.15;0.15;;;;;;;22.63;40.14;101165.09;5126886;28;20047;-68
2022/08/23 11:53:39;;;;;;;0.85;0.63;;;;;;;22.57;40.55;101168.00;5126911;28;20380;-67